Terminal Aerodrome Forecast
Issued by NWS

Home | Current Version | Previous Version | Text Only | Print | Product List | Glossary On
Versions: 1 2 3 4 5 6 7 8 9 10 11 12
000
FTAK31 PAJN 282329
TAFAKT
TAF
PAKT 282329Z 2900/2924 32006KT P6SM VCSH SCT035 BKN050
     FM290600 17005KT P6SM VCSH SCT025 BKN050
     FM291600 14008KT P6SM -SHRA SCT015 BKN035
      AMD LTD TO CLD VIS AND WIND 2906/2915=

USA.gov is the U.S. government's official web portal to all federal, state and local government web resources and services.